sensor_id;sensor_type;location;lat;lon;timestamp;P1;durP1;ratioP1;P2;durP2;ratioP2
2772;SDS011;1394;47.044;15.744;2024-02-26T00:00:07;25.83;;;3.57;;
2772;SDS011;1394;47.044;15.744;2024-02-26T00:02:35;25.73;;;3.00;;
2772;SDS011;1394;47.044;15.744;2024-02-26T00:05:04;25.17;;;2.70;;
2772;SDS011;1394;47.044;15.744;2024-02-26T00:07:31;25.30;;;2.57;;
2772;SDS011;1394;47.044;15.744;2024-02-26T00:10:00;25.00;;;2.33;;
2772;SDS011;1394;47.044;15.744;2024-02-26T00:12:28;24.67;;;2.30;;
2772;SDS011;1394;47.044;15.744;2024-02-26T00:14:55;25.47;;;2.37;;
2772;SDS011;1394;47.044;15.744;2024-02-26T00:17:23;25.00;;;2.10;;
2772;SDS011;1394;47.044;15.744;2024-02-26T00:19:53;25.90;;;2.40;;
2772;SDS011;1394;47.044;15.744;2024-02-26T00:22:22;25.83;;;2.63;;
2772;SDS011;1394;47.044;15.744;2024-02-26T00:24:51;24.13;;;1.93;;
2772;SDS011;1394;47.044;15.744;2024-02-26T00:27:19;24.80;;;2.13;;
2772;SDS011;1394;47.044;15.744;2024-02-26T00:29:47;24.57;;;2.30;;
2772;SDS011;1394;47.044;15.744;2024-02-26T00:32:17;24.33;;;2.20;;
2772;SDS011;1394;47.044;15.744;2024-02-26T00:34:44;24.40;;;2.17;;
2772;SDS011;1394;47.044;15.744;2024-02-26T00:37:12;24.37;;;1.90;;
2772;SDS011;1394;47.044;15.744;2024-02-26T00:39:39;25.03;;;2.00;;
2772;SDS011;1394;47.044;15.744;2024-02-26T00:42:06;23.80;;;1.80;;
2772;SDS011;1394;47.044;15.744;2024-02-26T00:44:35;24.50;;;2.10;;
2772;SDS011;1394;47.044;15.744;2024-02-26T00:47:03;24.10;;;2.70;;
2772;SDS011;1394;47.044;15.744;2024-02-26T00:49:32;24.90;;;2.60;;
2772;SDS011;1394;47.044;15.744;2024-02-26T00:52:00;24.90;;;2.50;;
2772;SDS011;1394;47.044;15.744;2024-02-26T00:54:27;24.33;;;2.00;;
2772;SDS011;1394;47.044;15.744;2024-02-26T00:56:56;24.60;;;2.10;;
2772;SDS011;1394;47.044;15.744;2024-02-26T00:59:23;24.40;;;2.07;;
2772;SDS011;1394;47.044;15.744;2024-02-26T01:01:52;24.20;;;1.90;;
2772;SDS011;1394;47.044;15.744;2024-02-26T01:04:19;24.13;;;1.90;;
2772;SDS011;1394;47.044;15.744;2024-02-26T01:06:47;24.83;;;2.27;;
2772;SDS011;1394;47.044;15.744;2024-02-26T01:09:14;24.87;;;2.20;;
2772;SDS011;1394;47.044;15.744;2024-02-26T01:11:43;24.53;;;2.10;;
2772;SDS011;1394;47.044;15.744;2024-02-26T01:14:12;24.07;;;2.00;;
2772;SDS011;1394;47.044;15.744;2024-02-26T01:16:39;26.00;;;2.37;;
2772;SDS011;1394;47.044;15.744;2024-02-26T01:19:08;24.50;;;2.30;;
2772;SDS011;1394;47.044;15.744;2024-02-26T01:21:35;24.93;;;2.50;;
2772;SDS011;1394;47.044;15.744;2024-02-26T01:24:03;24.03;;;1.83;;
2772;SDS011;1394;47.044;15.744;2024-02-26T01:26:32;24.77;;;2.20;;
2772;SDS011;1394;47.044;15.744;2024-02-26T01:28:59;24.50;;;2.03;;
2772;SDS011;1394;47.044;15.744;2024-02-26T01:31:26;25.10;;;2.60;;
2772;SDS011;1394;47.044;15.744;2024-02-26T01:33:53;26.67;;;2.50;;
2772;SDS011;1394;47.044;15.744;2024-02-26T01:36:24;23.77;;;2.10;;
2772;SDS011;1394;47.044;15.744;2024-02-26T01:38:51;23.80;;;1.60;;
2772;SDS011;1394;47.044;15.744;2024-02-26T01:41:19;24.80;;;2.07;;
2772;SDS011;1394;47.044;15.744;2024-02-26T01:43:46;24.40;;;2.07;;
2772;SDS011;1394;47.044;15.744;2024-02-26T01:46:14;25.10;;;2.03;;
2772;SDS011;1394;47.044;15.744;2024-02-26T01:48:41;24.87;;;2.37;;
2772;SDS011;1394;47.044;15.744;2024-02-26T01:51:10;25.37;;;2.53;;
2772;SDS011;1394;47.044;15.744;2024-02-26T01:53:39;24.70;;;2.10;;
2772;SDS011;1394;47.044;15.744;2024-02-26T01:56:06;24.10;;;2.03;;
2772;SDS011;1394;47.044;15.744;2024-02-26T01:58:34;25.40;;;2.10;;
2772;SDS011;1394;47.044;15.744;2024-02-26T02:01:02;24.90;;;2.40;;
2772;SDS011;1394;47.044;15.744;2024-02-26T02:03:29;24.77;;;2.20;;
2772;SDS011;1394;47.044;15.744;2024-02-26T02:05:57;24.03;;;1.97;;
2772;SDS011;1394;47.044;15.744;2024-02-26T02:08:24;24.53;;;2.00;;
2772;SDS011;1394;47.044;15.744;2024-02-26T02:10:53;25.00;;;2.10;;
2772;SDS011;1394;47.044;15.744;2024-02-26T02:13:21;24.93;;;2.13;;
2772;SDS011;1394;47.044;15.744;2024-02-26T02:15:49;28.10;;;2.10;;
2772;SDS011;1394;47.044;15.744;2024-02-26T02:18:16;25.87;;;2.67;;
2772;SDS011;1394;47.044;15.744;2024-02-26T02:20:45;24.60;;;2.10;;
2772;SDS011;1394;47.044;15.744;2024-02-26T02:23:12;25.13;;;2.40;;
2772;SDS011;1394;47.044;15.744;2024-02-26T02:25:57;24.57;;;2.90;;
2772;SDS011;1394;47.044;15.744;2024-02-26T02:28:25;24.77;;;2.20;;
2772;SDS011;1394;47.044;15.744;2024-02-26T02:30:54;24.57;;;2.17;;
2772;SDS011;1394;47.044;15.744;2024-02-26T02:33:22;24.40;;;2.00;;
2772;SDS011;1394;47.044;15.744;2024-02-26T02:35:51;24.30;;;2.20;;
2772;SDS011;1394;47.044;15.744;2024-02-26T02:38:20;23.90;;;2.10;;
2772;SDS011;1394;47.044;15.744;2024-02-26T02:40:49;24.37;;;2.20;;
2772;SDS011;1394;47.044;15.744;2024-02-26T02:43:16;24.30;;;2.23;;
2772;SDS011;1394;47.044;15.744;2024-02-26T02:45:43;24.00;;;2.03;;
2772;SDS011;1394;47.044;15.744;2024-02-26T02:48:10;24.07;;;2.00;;
2772;SDS011;1394;47.044;15.744;2024-02-26T02:50:38;24.10;;;1.97;;
2772;SDS011;1394;47.044;15.744;2024-02-26T02:53:06;23.67;;;1.70;;
2772;SDS011;1394;47.044;15.744;2024-02-26T02:55:34;24.70;;;2.07;;
2772;SDS011;1394;47.044;15.744;2024-02-26T02:58:02;24.10;;;1.80;;
2772;SDS011;1394;47.044;15.744;2024-02-26T03:00:29;24.17;;;2.03;;
2772;SDS011;1394;47.044;15.744;2024-02-26T03:02:56;24.03;;;1.83;;
2772;SDS011;1394;47.044;15.744;2024-02-26T03:05:24;24.30;;;1.57;;
2772;SDS011;1394;47.044;15.744;2024-02-26T03:07:51;24.70;;;2.23;;
2772;SDS011;1394;47.044;15.744;2024-02-26T03:10:20;23.43;;;1.80;;
2772;SDS011;1394;47.044;15.744;2024-02-26T03:12:47;24.27;;;1.90;;
2772;SDS011;1394;47.044;15.744;2024-02-26T03:15:15;25.57;;;2.30;;
2772;SDS011;1394;47.044;15.744;2024-02-26T03:17:42;24.47;;;1.90;;
2772;SDS011;1394;47.044;15.744;2024-02-26T03:20:10;23.70;;;1.50;;
2772;SDS011;1394;47.044;15.744;2024-02-26T03:22:38;24.50;;;1.87;;
2772;SDS011;1394;47.044;15.744;2024-02-26T03:25:06;24.77;;;2.10;;
2772;SDS011;1394;47.044;15.744;2024-02-26T03:27:34;23.77;;;1.63;;
2772;SDS011;1394;47.044;15.744;2024-02-26T03:30:05;24.83;;;2.33;;
2772;SDS011;1394;47.044;15.744;2024-02-26T03:32:33;24.70;;;3.13;;
2772;SDS011;1394;47.044;15.744;2024-02-26T03:35:00;24.87;;;3.00;;
2772;SDS011;1394;47.044;15.744;2024-02-26T03:37:27;24.83;;;2.37;;
2772;SDS011;1394;47.044;15.744;2024-02-26T03:39:55;24.80;;;1.93;;
2772;SDS011;1394;47.044;15.744;2024-02-26T03:42:23;24.77;;;1.90;;
2772;SDS011;1394;47.044;15.744;2024-02-26T03:44:51;24.60;;;1.87;;
2772;SDS011;1394;47.044;15.744;2024-02-26T03:47:19;24.93;;;2.70;;
2772;SDS011;1394;47.044;15.744;2024-02-26T03:49:46;25.07;;;2.33;;
2772;SDS011;1394;47.044;15.744;2024-02-26T03:52:16;24.90;;;2.50;;
2772;SDS011;1394;47.044;15.744;2024-02-26T03:54:43;24.80;;;2.17;;
2772;SDS011;1394;47.044;15.744;2024-02-26T03:57:11;27.07;;;2.13;;
2772;SDS011;1394;47.044;15.744;2024-02-26T03:59:38;24.23;;;2.30;;
2772;SDS011;1394;47.044;15.744;2024-02-26T04:02:07;24.47;;;1.83;;
2772;SDS011;1394;47.044;15.744;2024-02-26T04:04:36;25.10;;;2.20;;
2772;SDS011;1394;47.044;15.744;2024-02-26T04:07:04;24.63;;;2.13;;
2772;SDS011;1394;47.044;15.744;2024-02-26T04:09:31;23.67;;;1.70;;
2772;SDS011;1394;47.044;15.744;2024-02-26T04:11:59;24.57;;;2.00;;
2772;SDS011;1394;47.044;15.744;2024-02-26T04:14:29;24.80;;;2.10;;
2772;SDS011;1394;47.044;15.744;2024-02-26T04:16:56;25.10;;;2.10;;
2772;SDS011;1394;47.044;15.744;2024-02-26T04:19:25;24.90;;;2.67;;
2772;SDS011;1394;47.044;15.744;2024-02-26T04:21:54;25.87;;;2.37;;
2772;SDS011;1394;47.044;15.744;2024-02-26T04:24:21;23.83;;;1.80;;
2772;SDS011;1394;47.044;15.744;2024-02-26T04:26:48;23.40;;;1.60;;
2772;SDS011;1394;47.044;15.744;2024-02-26T04:29:16;23.50;;;1.50;;
2772;SDS011;1394;47.044;15.744;2024-02-26T04:31:45;24.30;;;1.67;;
2772;SDS011;1394;47.044;15.744;2024-02-26T04:34:13;24.13;;;1.80;;
2772;SDS011;1394;47.044;15.744;2024-02-26T04:36:42;24.23;;;1.80;;
2772;SDS011;1394;47.044;15.744;2024-02-26T04:39:09;26.50;;;1.80;;
2772;SDS011;1394;47.044;15.744;2024-02-26T04:41:37;23.53;;;1.63;;
2772;SDS011;1394;47.044;15.744;2024-02-26T04:44:04;24.43;;;1.70;;
2772;SDS011;1394;47.044;15.744;2024-02-26T04:46:32;23.70;;;1.63;;
2772;SDS011;1394;47.044;15.744;2024-02-26T04:48:59;23.60;;;1.80;;
2772;SDS011;1394;47.044;15.744;2024-02-26T04:51:27;23.70;;;1.70;;
2772;SDS011;1394;47.044;15.744;2024-02-26T04:53:57;23.47;;;1.63;;
2772;SDS011;1394;47.044;15.744;2024-02-26T04:56:25;25.50;;;1.93;;
2772;SDS011;1394;47.044;15.744;2024-02-26T04:58:54;24.40;;;1.80;;
2772;SDS011;1394;47.044;15.744;2024-02-26T05:01:21;23.83;;;1.70;;
2772;SDS011;1394;47.044;15.744;2024-02-26T05:03:49;24.80;;;1.83;;
2772;SDS011;1394;47.044;15.744;2024-02-26T05:06:18;24.83;;;1.83;;
2772;SDS011;1394;47.044;15.744;2024-02-26T05:08:47;25.00;;;1.90;;
2772;SDS011;1394;47.044;15.744;2024-02-26T05:11:18;24.27;;;2.30;;
2772;SDS011;1394;47.044;15.744;2024-02-26T05:13:47;24.77;;;1.90;;
2772;SDS011;1394;47.044;15.744;2024-02-26T05:16:16;24.17;;;1.43;;
2772;SDS011;1394;47.044;15.744;2024-02-26T05:18:45;24.27;;;2.03;;
2772;SDS011;1394;47.044;15.744;2024-02-26T05:21:12;23.70;;;1.70;;
2772;SDS011;1394;47.044;15.744;2024-02-26T05:23:40;23.77;;;1.60;;
2772;SDS011;1394;47.044;15.744;2024-02-26T05:26:08;23.47;;;1.60;;
2772;SDS011;1394;47.044;15.744;2024-02-26T05:28:38;23.90;;;2.17;;
2772;SDS011;1394;47.044;15.744;2024-02-26T05:31:08;23.80;;;1.73;;
2772;SDS011;1394;47.044;15.744;2024-02-26T05:33:35;23.90;;;1.90;;
2772;SDS011;1394;47.044;15.744;2024-02-26T05:36:03;25.10;;;1.60;;
2772;SDS011;1394;47.044;15.744;2024-02-26T05:38:30;23.80;;;1.77;;
2772;SDS011;1394;47.044;15.744;2024-02-26T05:40:57;24.03;;;1.83;;
2772;SDS011;1394;47.044;15.744;2024-02-26T05:43:26;24.80;;;1.93;;
2772;SDS011;1394;47.044;15.744;2024-02-26T05:45:57;23.97;;;1.60;;
2772;SDS011;1394;47.044;15.744;2024-02-26T05:48:26;24.20;;;1.93;;
2772;SDS011;1394;47.044;15.744;2024-02-26T05:50:54;23.60;;;1.60;;
2772;SDS011;1394;47.044;15.744;2024-02-26T05:53:22;23.93;;;1.70;;
2772;SDS011;1394;47.044;15.744;2024-02-26T05:55:50;24.57;;;2.00;;
2772;SDS011;1394;47.044;15.744;2024-02-26T05:58:19;24.33;;;1.93;;
2772;SDS011;1394;47.044;15.744;2024-02-26T06:00:47;25.80;;;2.17;;
2772;SDS011;1394;47.044;15.744;2024-02-26T06:03:16;25.00;;;1.70;;
2772;SDS011;1394;47.044;15.744;2024-02-26T06:05:43;23.67;;;1.70;;
2772;SDS011;1394;47.044;15.744;2024-02-26T06:08:10;24.17;;;1.70;;
2772;SDS011;1394;47.044;15.744;2024-02-26T06:10:39;23.20;;;1.50;;
2772;SDS011;1394;47.044;15.744;2024-02-26T06:13:07;24.07;;;1.87;;
2772;SDS011;1394;47.044;15.744;2024-02-26T06:15:37;23.87;;;1.80;;
2772;SDS011;1394;47.044;15.744;2024-02-26T06:18:06;24.50;;;1.93;;
2772;SDS011;1394;47.044;15.744;2024-02-26T06:20:35;23.70;;;1.77;;
2772;SDS011;1394;47.044;15.744;2024-02-26T06:23:03;25.17;;;1.63;;
2772;SDS011;1394;47.044;15.744;2024-02-26T06:25:30;25.20;;;2.33;;
2772;SDS011;1394;47.044;15.744;2024-02-26T06:27:58;24.70;;;2.33;;
2772;SDS011;1394;47.044;15.744;2024-02-26T06:30:25;24.60;;;2.30;;
2772;SDS011;1394;47.044;15.744;2024-02-26T06:32:52;23.80;;;1.97;;
2772;SDS011;1394;47.044;15.744;2024-02-26T06:35:20;23.83;;;2.00;;
2772;SDS011;1394;47.044;15.744;2024-02-26T06:37:51;25.47;;;2.30;;
2772;SDS011;1394;47.044;15.744;2024-02-26T06:40:18;23.90;;;2.10;;
2772;SDS011;1394;47.044;15.744;2024-02-26T06:42:46;24.27;;;2.10;;
2772;SDS011;1394;47.044;15.744;2024-02-26T06:45:13;23.97;;;1.73;;
2772;SDS011;1394;47.044;15.744;2024-02-26T06:47:42;24.33;;;2.43;;
2772;SDS011;1394;47.044;15.744;2024-02-26T06:50:16;25.10;;;1.90;;
2772;SDS011;1394;47.044;15.744;2024-02-26T06:52:53;25.00;;;1.60;;
2772;SDS011;1394;47.044;15.744;2024-02-26T06:55:30;23.70;;;1.87;;
2772;SDS011;1394;47.044;15.744;2024-02-26T06:58:08;23.83;;;1.63;;
2772;SDS011;1394;47.044;15.744;2024-02-26T07:00:39;24.27;;;1.87;;
2772;SDS011;1394;47.044;15.744;2024-02-26T07:03:11;24.13;;;1.70;;
2772;SDS011;1394;47.044;15.744;2024-02-26T07:05:51;24.17;;;1.77;;
2772;SDS011;1394;47.044;15.744;2024-02-26T07:08:23;24.03;;;2.13;;
2772;SDS011;1394;47.044;15.744;2024-02-26T07:10:51;24.23;;;1.90;;
2772;SDS011;1394;47.044;15.744;2024-02-26T07:13:20;25.57;;;2.30;;
2772;SDS011;1394;47.044;15.744;2024-02-26T07:15:48;25.37;;;1.90;;
2772;SDS011;1394;47.044;15.744;2024-02-26T07:18:18;24.67;;;2.20;;
2772;SDS011;1394;47.044;15.744;2024-02-26T07:20:45;24.37;;;1.90;;
2772;SDS011;1394;47.044;15.744;2024-02-26T07:23:13;24.63;;;2.20;;
2772;SDS011;1394;47.044;15.744;2024-02-26T07:25:43;24.37;;;1.90;;
2772;SDS011;1394;47.044;15.744;2024-02-26T07:28:12;24.03;;;1.93;;
2772;SDS011;1394;47.044;15.744;2024-02-26T07:30:39;24.50;;;2.33;;
2772;SDS011;1394;47.044;15.744;2024-02-26T07:33:06;23.70;;;1.90;;
2772;SDS011;1394;47.044;15.744;2024-02-26T07:35:33;24.47;;;1.90;;
2772;SDS011;1394;47.044;15.744;2024-02-26T07:38:01;24.13;;;2.00;;
2772;SDS011;1394;47.044;15.744;2024-02-26T07:40:29;24.47;;;2.13;;
2772;SDS011;1394;47.044;15.744;2024-02-26T07:43:00;23.77;;;1.90;;
2772;SDS011;1394;47.044;15.744;2024-02-26T07:45:27;24.17;;;2.13;;
2772;SDS011;1394;47.044;15.744;2024-02-26T07:47:55;23.50;;;1.70;;
2772;SDS011;1394;47.044;15.744;2024-02-26T07:50:22;24.67;;;1.93;;
2772;SDS011;1394;47.044;15.744;2024-02-26T07:52:49;29.20;;;2.30;;
2772;SDS011;1394;47.044;15.744;2024-02-26T07:55:18;24.00;;;2.00;;
2772;SDS011;1394;47.044;15.744;2024-02-26T07:57:45;24.63;;;1.90;;
2772;SDS011;1394;47.044;15.744;2024-02-26T08:00:14;24.37;;;1.60;;
2772;SDS011;1394;47.044;15.744;2024-02-26T08:02:42;24.50;;;2.37;;
2772;SDS011;1394;47.044;15.744;2024-02-26T08:05:10;24.10;;;1.80;;
2772;SDS011;1394;47.044;15.744;2024-02-26T08:07:42;23.60;;;1.60;;
2772;SDS011;1394;47.044;15.744;2024-02-26T08:10:09;24.00;;;1.80;;
2772;SDS011;1394;47.044;15.744;2024-02-26T08:12:38;25.53;;;2.13;;
2772;SDS011;1394;47.044;15.744;2024-02-26T08:15:06;24.17;;;2.23;;
2772;SDS011;1394;47.044;15.744;2024-02-26T08:17:40;25.40;;;2.80;;
2772;SDS011;1394;47.044;15.744;2024-02-26T08:20:08;27.00;;;2.80;;
2772;SDS011;1394;47.044;15.744;2024-02-26T08:22:37;24.40;;;2.60;;
2772;SDS011;1394;47.044;15.744;2024-02-26T08:25:09;24.80;;;2.37;;
2772;SDS011;1394;47.044;15.744;2024-02-26T08:27:38;26.23;;;2.70;;
2772;SDS011;1394;47.044;15.744;2024-02-26T08:30:19;26.70;;;2.07;;
2772;SDS011;1394;47.044;15.744;2024-02-26T08:32:53;25.10;;;2.63;;
2772;SDS011;1394;47.044;15.744;2024-02-26T08:35:22;24.80;;;2.13;;
2772;SDS011;1394;47.044;15.744;2024-02-26T08:37:51;24.77;;;2.03;;
2772;SDS011;1394;47.044;15.744;2024-02-26T08:40:18;24.67;;;1.90;;
2772;SDS011;1394;47.044;15.744;2024-02-26T08:42:47;24.03;;;1.70;;
2772;SDS011;1394;47.044;15.744;2024-02-26T08:45:14;25.00;;;1.73;;
2772;SDS011;1394;47.044;15.744;2024-02-26T08:47:41;24.03;;;1.50;;
2772;SDS011;1394;47.044;15.744;2024-02-26T08:50:10;25.13;;;1.57;;
2772;SDS011;1394;47.044;15.744;2024-02-26T08:52:39;24.23;;;1.70;;
2772;SDS011;1394;47.044;15.744;2024-02-26T08:55:07;24.57;;;1.70;;
2772;SDS011;1394;47.044;15.744;2024-02-26T08:57:35;25.30;;;1.77;;
2772;SDS011;1394;47.044;15.744;2024-02-26T09:00:04;25.83;;;1.60;;
2772;SDS011;1394;47.044;15.744;2024-02-26T09:02:32;23.97;;;1.50;;
2772;SDS011;1394;47.044;15.744;2024-02-26T09:05:12;24.47;;;1.53;;
2772;SDS011;1394;47.044;15.744;2024-02-26T09:07:44;24.17;;;1.70;;
2772;SDS011;1394;47.044;15.744;2024-02-26T09:10:41;24.40;;;1.40;;
2772;SDS011;1394;47.044;15.744;2024-02-26T09:13:09;25.60;;;1.50;;
2772;SDS011;1394;47.044;15.744;2024-02-26T09:15:37;24.07;;;1.43;;
2772;SDS011;1394;47.044;15.744;2024-02-26T09:18:04;24.27;;;1.60;;
2772;SDS011;1394;47.044;15.744;2024-02-26T09:20:34;23.80;;;1.50;;
2772;SDS011;1394;47.044;15.744;2024-02-26T09:23:01;24.30;;;1.50;;
2772;SDS011;1394;47.044;15.744;2024-02-26T09:25:29;24.80;;;1.57;;
2772;SDS011;1394;47.044;15.744;2024-02-26T09:27:59;24.70;;;1.40;;
2772;SDS011;1394;47.044;15.744;2024-02-26T09:30:26;24.20;;;1.30;;
2772;SDS011;1394;47.044;15.744;2024-02-26T09:32:53;23.90;;;1.23;;
2772;SDS011;1394;47.044;15.744;2024-02-26T09:35:20;24.40;;;1.30;;
2772;SDS011;1394;47.044;15.744;2024-02-26T09:37:49;23.90;;;1.20;;
2772;SDS011;1394;47.044;15.744;2024-02-26T09:40:18;24.57;;;1.20;;
2772;SDS011;1394;47.044;15.744;2024-02-26T09:42:47;27.00;;;1.53;;
2772;SDS011;1394;47.044;15.744;2024-02-26T09:45:17;24.33;;;1.07;;
2772;SDS011;1394;47.044;15.744;2024-02-26T09:47:45;23.70;;;1.20;;
2772;SDS011;1394;47.044;15.744;2024-02-26T09:50:14;23.70;;;1.00;;
2772;SDS011;1394;47.044;15.744;2024-02-26T09:52:43;23.70;;;1.10;;
2772;SDS011;1394;47.044;15.744;2024-02-26T09:55:14;27.53;;;1.23;;
2772;SDS011;1394;47.044;15.744;2024-02-26T09:57:45;23.50;;;0.90;;
2772;SDS011;1394;47.044;15.744;2024-02-26T10:00:14;24.87;;;1.20;;
2772;SDS011;1394;47.044;15.744;2024-02-26T10:02:43;23.70;;;1.20;;
2772;SDS011;1394;47.044;15.744;2024-02-26T10:05:13;23.67;;;1.20;;
2772;SDS011;1394;47.044;15.744;2024-02-26T10:07:41;24.17;;;1.77;;
2772;SDS011;1394;47.044;15.744;2024-02-26T10:10:09;24.80;;;1.80;;
2772;SDS011;1394;47.044;15.744;2024-02-26T10:12:46;23.80;;;1.03;;
2772;SDS011;1394;47.044;15.744;2024-02-26T10:15:14;24.70;;;1.10;;
2772;SDS011;1394;47.044;15.744;2024-02-26T10:17:42;24.13;;;1.00;;
2772;SDS011;1394;47.044;15.744;2024-02-26T10:20:14;24.00;;;1.10;;
2772;SDS011;1394;47.044;15.744;2024-02-26T10:25:33;23.90;;;1.07;;
2772;SDS011;1394;47.044;15.744;2024-02-26T10:28:01;23.87;;;0.90;;
2772;SDS011;1394;47.044;15.744;2024-02-26T10:30:29;23.77;;;0.90;;
2772;SDS011;1394;47.044;15.744;2024-02-26T10:32:58;25.67;;;1.20;;
2772;SDS011;1394;47.044;15.744;2024-02-26T10:35:26;23.87;;;1.00;;
2772;SDS011;1394;47.044;15.744;2024-02-26T10:37:56;24.20;;;1.00;;
2772;SDS011;1394;47.044;15.744;2024-02-26T10:40:23;23.80;;;1.07;;
2772;SDS011;1394;47.044;15.744;2024-02-26T10:42:50;24.13;;;1.00;;
2772;SDS011;1394;47.044;15.744;2024-02-26T10:45:21;24.10;;;1.10;;
2772;SDS011;1394;47.044;15.744;2024-02-26T10:47:50;24.17;;;1.00;;
2772;SDS011;1394;47.044;15.744;2024-02-26T10:50:20;23.70;;;0.80;;
2772;SDS011;1394;47.044;15.744;2024-02-26T10:52:49;23.93;;;0.77;;
2772;SDS011;1394;47.044;15.744;2024-02-26T10:55:19;24.10;;;0.83;;
2772;SDS011;1394;47.044;15.744;2024-02-26T10:57:50;23.97;;;0.93;;
2772;SDS011;1394;47.044;15.744;2024-02-26T11:00:20;24.57;;;0.90;;
2772;SDS011;1394;47.044;15.744;2024-02-26T11:02:48;24.00;;;0.83;;
2772;SDS011;1394;47.044;15.744;2024-02-26T11:05:16;23.80;;;0.70;;
2772;SDS011;1394;47.044;15.744;2024-02-26T11:07:44;24.10;;;0.80;;
2772;SDS011;1394;47.044;15.744;2024-02-26T11:10:12;25.17;;;0.87;;
2772;SDS011;1394;47.044;15.744;2024-02-26T11:12:46;24.00;;;0.80;;
2772;SDS011;1394;47.044;15.744;2024-02-26T11:15:14;24.50;;;0.80;;
2772;SDS011;1394;47.044;15.744;2024-02-26T11:17:43;24.17;;;0.90;;
2772;SDS011;1394;47.044;15.744;2024-02-26T11:20:15;24.20;;;0.80;;
2772;SDS011;1394;47.044;15.744;2024-02-26T11:22:44;24.30;;;0.90;;
2772;SDS011;1394;47.044;15.744;2024-02-26T11:25:12;25.43;;;0.93;;
2772;SDS011;1394;47.044;15.744;2024-02-26T11:27:42;24.00;;;0.80;;
2772;SDS011;1394;47.044;15.744;2024-02-26T11:30:10;24.00;;;0.90;;
2772;SDS011;1394;47.044;15.744;2024-02-26T11:32:38;24.27;;;0.87;;
2772;SDS011;1394;47.044;15.744;2024-02-26T11:35:06;24.77;;;0.90;;
2772;SDS011;1394;47.044;15.744;2024-02-26T11:37:37;24.37;;;0.70;;
2772;SDS011;1394;47.044;15.744;2024-02-26T11:40:04;24.00;;;0.80;;
2772;SDS011;1394;47.044;15.744;2024-02-26T11:42:38;25.20;;;1.30;;
2772;SDS011;1394;47.044;15.744;2024-02-26T11:47:55;26.30;;;1.60;;
2772;SDS011;1394;47.044;15.744;2024-02-26T11:50:36;23.90;;;0.83;;
2772;SDS011;1394;47.044;15.744;2024-02-26T11:53:25;24.00;;;0.80;;
2772;SDS011;1394;47.044;15.744;2024-02-26T11:58:40;24.57;;;0.90;;
2772;SDS011;1394;47.044;15.744;2024-02-26T12:03:50;24.33;;;0.83;;
2772;SDS011;1394;47.044;15.744;2024-02-26T12:06:18;24.50;;;0.90;;
2772;SDS011;1394;47.044;15.744;2024-02-26T12:08:47;24.30;;;0.90;;
2772;SDS011;1394;47.044;15.744;2024-02-26T12:11:16;24.40;;;1.00;;
2772;SDS011;1394;47.044;15.744;2024-02-26T12:13:45;24.40;;;0.80;;
2772;SDS011;1394;47.044;15.744;2024-02-26T12:16:36;24.40;;;1.00;;
2772;SDS011;1394;47.044;15.744;2024-02-26T12:19:04;24.20;;;0.80;;
2772;SDS011;1394;47.044;15.744;2024-02-26T12:21:33;24.37;;;0.80;;
2772;SDS011;1394;47.044;15.744;2024-02-26T12:24:11;24.77;;;1.00;;
2772;SDS011;1394;47.044;15.744;2024-02-26T12:26:41;24.33;;;0.90;;
2772;SDS011;1394;47.044;15.744;2024-02-26T12:29:11;24.20;;;1.10;;
2772;SDS011;1394;47.044;15.744;2024-02-26T12:31:40;24.20;;;1.00;;
2772;SDS011;1394;47.044;15.744;2024-02-26T12:34:07;24.07;;;0.83;;
2772;SDS011;1394;47.044;15.744;2024-02-26T12:36:36;24.10;;;0.80;;
2772;SDS011;1394;47.044;15.744;2024-02-26T12:39:05;24.03;;;0.70;;
2772;SDS011;1394;47.044;15.744;2024-02-26T12:41:34;24.10;;;0.80;;
2772;SDS011;1394;47.044;15.744;2024-02-26T12:44:01;24.33;;;0.90;;
2772;SDS011;1394;47.044;15.744;2024-02-26T12:46:32;24.10;;;0.77;;
2772;SDS011;1394;47.044;15.744;2024-02-26T12:49:01;23.90;;;0.70;;
2772;SDS011;1394;47.044;15.744;2024-02-26T12:51:31;24.00;;;0.77;;
2772;SDS011;1394;47.044;15.744;2024-02-26T12:53:58;24.30;;;0.80;;
2772;SDS011;1394;47.044;15.744;2024-02-26T12:56:26;24.03;;;0.70;;
2772;SDS011;1394;47.044;15.744;2024-02-26T12:58:58;24.10;;;0.80;;
2772;SDS011;1394;47.044;15.744;2024-02-26T13:01:26;24.00;;;0.70;;
2772;SDS011;1394;47.044;15.744;2024-02-26T13:03:54;24.00;;;0.70;;
2772;SDS011;1394;47.044;15.744;2024-02-26T13:06:21;23.90;;;0.63;;
2772;SDS011;1394;47.044;15.744;2024-02-26T13:08:55;24.67;;;0.80;;
2772;SDS011;1394;47.044;15.744;2024-02-26T13:11:25;24.33;;;0.70;;
2772;SDS011;1394;47.044;15.744;2024-02-26T13:13:56;24.40;;;0.80;;
2772;SDS011;1394;47.044;15.744;2024-02-26T13:16:27;24.30;;;0.70;;
2772;SDS011;1394;47.044;15.744;2024-02-26T13:18:57;24.90;;;0.80;;
2772;SDS011;1394;47.044;15.744;2024-02-26T13:21:36;24.20;;;0.60;;
2772;SDS011;1394;47.044;15.744;2024-02-26T13:24:03;24.83;;;0.80;;
2772;SDS011;1394;47.044;15.744;2024-02-26T13:26:33;24.53;;;0.70;;
2772;SDS011;1394;47.044;15.744;2024-02-26T13:29:02;24.57;;;0.70;;
2772;SDS011;1394;47.044;15.744;2024-02-26T13:31:30;24.90;;;0.70;;
2772;SDS011;1394;47.044;15.744;2024-02-26T13:33:58;24.50;;;0.80;;
2772;SDS011;1394;47.044;15.744;2024-02-26T13:36:26;24.40;;;0.63;;
2772;SDS011;1394;47.044;15.744;2024-02-26T13:38:54;24.40;;;0.70;;
2772;SDS011;1394;47.044;15.744;2024-02-26T13:41:22;25.83;;;0.87;;
2772;SDS011;1394;47.044;15.744;2024-02-26T13:43:50;24.40;;;0.80;;
2772;SDS011;1394;47.044;15.744;2024-02-26T13:46:19;24.40;;;0.60;;
2772;SDS011;1394;47.044;15.744;2024-02-26T13:48:46;24.40;;;0.60;;
2772;SDS011;1394;47.044;15.744;2024-02-26T13:51:13;24.50;;;0.70;;
2772;SDS011;1394;47.044;15.744;2024-02-26T13:53:42;24.50;;;0.67;;
2772;SDS011;1394;47.044;15.744;2024-02-26T13:56:11;24.57;;;0.80;;
2772;SDS011;1394;47.044;15.744;2024-02-26T13:58:38;24.50;;;0.70;;
2772;SDS011;1394;47.044;15.744;2024-02-26T14:01:05;24.80;;;0.80;;
2772;SDS011;1394;47.044;15.744;2024-02-26T14:03:37;24.50;;;0.73;;
2772;SDS011;1394;47.044;15.744;2024-02-26T14:06:04;24.53;;;0.90;;
2772;SDS011;1394;47.044;15.744;2024-02-26T14:08:32;24.50;;;0.90;;
2772;SDS011;1394;47.044;15.744;2024-02-26T14:10:59;24.67;;;1.00;;
2772;SDS011;1394;47.044;15.744;2024-02-26T14:13:26;24.73;;;0.70;;
2772;SDS011;1394;47.044;15.744;2024-02-26T14:15:55;24.30;;;0.60;;
2772;SDS011;1394;47.044;15.744;2024-02-26T14:18:23;24.40;;;0.80;;
2772;SDS011;1394;47.044;15.744;2024-02-26T14:20:59;24.27;;;0.87;;
2772;SDS011;1394;47.044;15.744;2024-02-26T14:23:26;25.00;;;1.73;;
2772;SDS011;1394;47.044;15.744;2024-02-26T14:25:54;24.43;;;1.10;;
2772;SDS011;1394;47.044;15.744;2024-02-26T14:28:21;24.90;;;1.80;;
2772;SDS011;1394;47.044;15.744;2024-02-26T14:30:50;24.20;;;1.10;;
2772;SDS011;1394;47.044;15.744;2024-02-26T14:33:20;24.57;;;1.67;;
2772;SDS011;1394;47.044;15.744;2024-02-26T14:38:56;23.80;;;0.73;;
2772;SDS011;1394;47.044;15.744;2024-02-26T14:41:23;24.10;;;0.70;;
2772;SDS011;1394;47.044;15.744;2024-02-26T14:43:51;23.97;;;0.80;;
2772;SDS011;1394;47.044;15.744;2024-02-26T14:46:18;23.97;;;0.80;;
2772;SDS011;1394;47.044;15.744;2024-02-26T14:48:47;23.87;;;0.60;;
2772;SDS011;1394;47.044;15.744;2024-02-26T14:51:16;24.00;;;0.90;;
2772;SDS011;1394;47.044;15.744;2024-02-26T14:53:43;23.80;;;0.70;;
2772;SDS011;1394;47.044;15.744;2024-02-26T14:56:13;24.00;;;0.70;;
2772;SDS011;1394;47.044;15.744;2024-02-26T14:58:44;23.90;;;0.70;;
2772;SDS011;1394;47.044;15.744;2024-02-26T15:01:12;23.90;;;0.80;;
2772;SDS011;1394;47.044;15.744;2024-02-26T15:03:42;23.77;;;0.70;;
2772;SDS011;1394;47.044;15.744;2024-02-26T15:06:09;23.80;;;0.80;;
2772;SDS011;1394;47.044;15.744;2024-02-26T15:08:37;24.37;;;1.20;;
2772;SDS011;1394;47.044;15.744;2024-02-26T15:11:04;24.20;;;0.93;;